Aeroporto :
LOGIN :

Iscrizione | Disclaimer

   EN    FR    IT 

 










Sommario :    VFR   VFR Marginale   IFR   IFR Intensivo   IFR Molto Intensivo
Visibilità : 
Base nubi : 
>= 8 km
>= 3000ft
5 / 8 km
1000 / 3000 ft
1500m / 5 km
500 / 1000 ft
800 / 1500m
200 / 500 ft
< 800m
< 200 ft
Simboli :   Temporali  Nebbia  Neve Forte  Precipitazioni Forti  Vento > 20 kt
SIGMETs :   Varie  Temporali  Ghiacco  Turbolenza  Onda orograficha  Ceneri Vulcaniche






- Altitudine del aeroporto : 179 ft


LIPI - Rivolto AFB Udine

ULTIMO METAR :
  • 251455Z 13007KT 4000 BR SCT010 BKN020 11/09 Q1008 RMK OVC VIS MIN 4000 WIND THR06 16007KT WIND THR24 14008KT GRN

METARs OBSOLETI :
  • 251355Z 16004KT 5000 BR SCT015 SCT020 12/09 Q1008 RMK OVC VIS MIN 5000 WIND THR06 19005KT WIND THR24 17003KT WHT

TAF TAF LIPI
Valido dal 25 a 15 ore il 26 a 00 ore UTC


251400Z 2515/2524 02005KT 5000 BR SCT010 BKN025
TEMPO 2518/2524 18005KT 3000 RA BR



MetMap, La meteo Aeronautica in un colpo d'occhio ! - Copyright ORBIFLY Dicembre 2007 - Disclaimer

ORBIFLY MET'MAP TEAM :

Programmazione e sviluppo : Alexandra Zaïnal
Concezione : Baudouin d'Aumeries
Aiuto per la programmazione : Marc-Olivier Méhu
Supporto tecnico e logistico : Manuel Goepfert
Aiuto per la traduzione : Arnaldo La Scala

Contatto : metmap@orbifly.com




FONTI E CREDITI :

   NOAA